Time;durP1;ratioP1;P1;durP2;ratioP2;P2;SDS_P1;SDS_P2;PMS_P1;PMS_P2;Temp;Humidity;BMP_temperature;BMP_pressure;BME280_temperature;BME280_humidity;BME280_pressure;Samples;Min_cycle;Max_cycle;Signal;HPM_P1;HPM_P2
2021/01/16 00:02:03;;;;;;;16.20;12.93;;;5.70;71.80;;;;;;5030966;28;21207;-50
2021/01/16 00:04:30;;;;;;;16.67;14.23;;;5.70;72.10;;;;;;5029458;28;20654;-50
2021/01/16 00:06:57;;;;;;;22.87;18.17;;;5.70;72.30;;;;;;5030813;28;21258;-50
2021/01/16 00:09:24;;;;;;;24.53;20.50;;;5.70;72.60;;;;;;5031009;28;20698;-50
2021/01/16 00:11:50;;;;;;;18.53;14.40;;;5.80;72.90;;;;;;5032819;28;20645;-50
2021/01/16 00:14:17;;;;;;;20.00;13.37;;;5.70;73.00;;;;;;5031045;28;20639;-50
2021/01/16 00:16:44;;;;;;;17.27;13.87;;;5.60;73.60;;;;;;5031313;28;20662;-50
2021/01/16 00:19:11;;;;;;;16.60;12.53;;;5.50;74.00;;;;;;5031315;28;20682;-50
2021/01/16 00:21:38;;;;;;;17.97;13.30;;;5.50;74.60;;;;;;5031199;28;20674;-50
2021/01/16 00:24:06;;;;;;;18.20;14.93;;;5.50;75.00;;;;;;5031129;28;20655;-49
2021/01/16 00:26:32;;;;;;;19.03;12.50;;;5.50;75.20;;;;;;5031313;28;20630;-50
2021/01/16 00:28:59;;;;;;;19.80;13.30;;;5.50;74.70;;;;;;5029411;28;20821;-49
2021/01/16 00:31:26;;;;;;;16.73;12.67;;;5.50;73.90;;;;;;5030717;28;21089;-49
2021/01/16 00:33:53;;;;;;;16.47;12.23;;;5.50;74.10;;;;;;5031851;28;21178;-49
2021/01/16 00:36:20;;;;;;;18.47;14.03;;;5.60;74.20;;;;;;5030619;28;20721;-49
2021/01/16 00:38:47;;;;;;;17.47;13.03;;;5.50;74.00;;;;;;5030143;28;20659;-49
2021/01/16 00:41:14;;;;;;;19.90;13.57;;;5.50;74.20;;;;;;5045840;28;20630;-48
2021/01/16 00:43:40;;;;;;;19.93;14.53;;;5.50;74.10;;;;;;5050351;28;20720;-50
2021/01/16 00:46:07;;;;;;;17.87;14.63;;;5.50;73.70;;;;;;5049740;28;20685;-49
2021/01/16 00:48:34;;;;;;;15.47;13.07;;;5.40;73.50;;;;;;5031170;28;20713;-49
2021/01/16 00:51:01;;;;;;;17.00;12.93;;;5.50;73.80;;;;;;5029078;28;20635;-49
2021/01/16 00:53:28;;;;;;;15.67;12.90;;;5.40;73.40;;;;;;5029407;28;20651;-48
2021/01/16 00:55:55;;;;;;;22.13;14.80;;;5.50;73.50;;;;;;5029512;28;20992;-49
2021/01/16 00:58:22;;;;;;;16.67;13.80;;;5.50;73.20;;;;;;5030119;28;20683;-49
2021/01/16 01:00:49;;;;;;;17.67;13.37;;;5.60;73.10;;;;;;5029976;28;20662;-49
2021/01/16 01:03:16;;;;;;;18.20;14.30;;;5.60;73.00;;;;;;5011973;28;20724;-49
2021/01/16 01:05:43;;;;;;;15.77;12.93;;;5.60;73.30;;;;;;5029261;28;20651;-49
2021/01/16 01:08:10;;;;;;;17.67;13.47;;;5.60;71.90;;;;;;5032220;28;20693;-50
2021/01/16 01:10:40;;;;;;;17.53;14.00;;;5.60;71.90;;;;;;5030082;28;20639;-49
2021/01/16 01:13:07;;;;;;;14.37;12.87;;;5.60;71.90;;;;;;5030259;28;20623;-49
2021/01/16 01:15:34;;;;;;;17.50;14.70;;;5.60;71.70;;;;;;5012374;28;21191;-49
2021/01/16 01:18:01;;;;;;;16.73;13.00;;;5.70;71.80;;;;;;5030427;28;20631;-49
2021/01/16 01:20:28;;;;;;;17.63;14.67;;;5.70;71.70;;;;;;5029910;28;20798;-50
2021/01/16 01:22:54;;;;;;;17.50;14.70;;;5.70;71.40;;;;;;5029639;28;20690;-46
2021/01/16 01:25:21;;;;;;;16.90;13.03;;;5.70;71.10;;;;;;5029783;28;20642;-49
2021/01/16 01:27:50;;;;;;;17.23;13.10;;;5.70;70.90;;;;;;5029159;28;20659;-49
2021/01/16 01:30:17;;;;;;;15.37;11.57;;;5.60;70.40;;;;;;5045955;28;20697;-49
2021/01/16 01:32:44;;;;;;;17.50;14.77;;;5.60;70.60;;;;;;5049953;28;21012;-49
2021/01/16 01:35:11;;;;;;;18.27;13.33;;;5.60;70.70;;;;;;5049416;28;20678;-49
2021/01/16 01:37:42;;;;;;;19.27;13.97;;;5.60;70.20;;;;;;5033159;28;20659;-49
2021/01/16 01:40:10;;;;;;;15.73;13.00;;;5.50;69.80;;;;;;5029334;28;20683;-47
2021/01/16 01:42:37;;;;;;;18.53;14.90;;;5.50;69.70;;;;;;5030065;28;21150;-49
2021/01/16 01:45:06;;;;;;;15.70;12.53;;;5.50;69.80;;;;;;5029954;28;20652;-49
2021/01/16 01:47:32;;;;;;;16.67;13.17;;;5.60;70.10;;;;;;5029613;28;20705;-49
2021/01/16 01:49:59;;;;;;;16.00;13.00;;;5.60;70.30;;;;;;5031468;28;20666;-49
2021/01/16 01:52:26;;;;;;;21.63;16.00;;;5.60;70.10;;;;;;5034086;28;20670;-49
2021/01/16 01:54:53;;;;;;;18.70;14.27;;;5.60;70.10;;;;;;5033296;28;20660;-49
2021/01/16 01:57:20;;;;;;;17.03;14.23;;;5.70;70.20;;;;;;5039150;28;20673;-48
2021/01/16 01:59:47;;;;;;;13.43;11.97;;;5.70;69.90;;;;;;5033045;28;20670;-49
2021/01/16 02:02:15;;;;;;;19.07;13.97;;;5.70;69.70;;;;;;5033159;28;20661;-49
2021/01/16 02:04:43;;;;;;;18.83;13.20;;;5.70;69.50;;;;;;5032495;28;21160;-49
2021/01/16 02:07:28;;;;;;;15.77;13.30;;;5.70;69.10;;;;;;5033442;28;20650;-49
2021/01/16 02:09:55;;;;;;;16.60;12.50;;;5.70;68.80;;;;;;5033340;28;20642;-49
2021/01/16 02:12:22;;;;;;;15.10;12.63;;;5.60;69.00;;;;;;5045464;28;21174;-49
2021/01/16 02:14:55;;;;;;;16.77;13.57;;;5.50;69.30;;;;;;5033076;28;20650;-49
2021/01/16 02:17:24;;;;;;;16.97;14.90;;;5.40;68.90;;;;;;5033110;28;20647;-49
2021/01/16 02:20:06;;;;;;;12.53;10.80;;;5.40;69.30;;;;;;5032186;28;20690;-49
2021/01/16 02:22:35;;;;;;;20.27;13.70;;;5.50;69.60;;;;;;5031921;28;21056;-47
2021/01/16 02:25:09;;;;;;;17.50;14.03;;;5.50;69.30;;;;;;5033353;28;20663;-47
2021/01/16 02:27:41;;;;;;;16.87;12.60;;;5.50;69.00;;;;;;5033450;28;21210;-47
2021/01/16 02:30:08;;;;;;;17.37;15.30;;;5.60;69.10;;;;;;5032685;28;20738;-47
2021/01/16 02:32:35;;;;;;;15.23;13.00;;;5.60;68.50;;;;;;5032665;28;20654;-47
2021/01/16 02:35:06;;;;;;;16.80;13.00;;;5.60;68.10;;;;;;5032892;28;20666;-47
2021/01/16 02:37:37;;;;;;;16.27;12.07;;;5.60;67.80;;;;;;5032655;28;20674;-47
2021/01/16 02:40:07;;;;;;;17.40;13.10;;;5.50;67.60;;;;;;5032130;28;20694;-47
2021/01/16 02:42:47;;;;;;;15.70;13.00;;;5.50;67.50;;;;;;5032651;28;20943;-47
2021/01/16 02:45:16;;;;;;;15.97;13.70;;;5.50;67.60;;;;;;5032177;28;20634;-47
2021/01/16 02:47:49;;;;;;;14.87;11.63;;;5.60;67.70;;;;;;5031940;28;20659;-47
2021/01/16 02:50:19;;;;;;;16.23;12.07;;;5.60;67.40;;;;;;5031705;28;20667;-47
2021/01/16 02:52:46;;;;;;;16.57;13.20;;;5.60;67.00;;;;;;5026959;28;20651;-47
2021/01/16 02:55:13;;;;;;;16.27;12.67;;;5.50;67.00;;;;;;5051743;28;20629;-47
2021/01/16 02:57:40;;;;;;;16.27;12.83;;;5.50;66.50;;;;;;5051604;28;21005;-47
2021/01/16 03:00:09;;;;;;;13.30;11.90;;;5.50;66.20;;;;;;5051683;28;21225;-47
2021/01/16 03:02:36;;;;;;;14.17;11.40;;;5.50;66.20;;;;;;5052025;28;20645;-47
2021/01/16 03:05:03;;;;;;;13.20;11.83;;;5.50;65.70;;;;;;5043339;28;20705;-47
2021/01/16 03:07:30;;;;;;;12.70;10.70;;;5.60;65.80;;;;;;5031410;28;20638;-47
2021/01/16 03:09:57;;;;;;;14.00;12.60;;;5.60;65.10;;;;;;5032199;28;20721;-47
2021/01/16 03:12:23;;;;;;;12.43;11.03;;;5.60;64.60;;;;;;5031815;28;20658;-47
2021/01/16 03:14:52;;;;;;;16.77;12.50;;;5.60;64.40;;;;;;5031817;28;20627;-47
2021/01/16 03:17:19;;;;;;;15.37;11.73;;;5.60;65.40;;;;;;5031755;28;20678;-49
2021/01/16 03:19:46;;;;;;;16.60;13.00;;;5.60;65.30;;;;;;5030642;28;21010;-47
2021/01/16 03:22:18;;;;;;;14.87;12.07;;;5.60;65.60;;;;;;5020956;28;20692;-47
2021/01/16 03:24:45;;;;;;;16.93;12.83;;;5.60;65.20;;;;;;5030690;28;20705;-47
2021/01/16 03:27:12;;;;;;;14.20;12.80;;;5.50;65.00;;;;;;5041445;28;20696;-47
2021/01/16 03:29:38;;;;;;;14.00;12.20;;;5.50;65.30;;;;;;5031290;28;20731;-47
2021/01/16 03:32:05;;;;;;;14.70;12.17;;;5.50;65.20;;;;;;5044236;28;20673;-47
2021/01/16 03:34:33;;;;;;;12.50;10.27;;;5.40;65.60;;;;;;5030378;28;20782;-47
2021/01/16 03:37:00;;;;;;;15.70;12.53;;;5.40;66.00;;;;;;5037019;28;20661;-47
2021/01/16 03:39:27;;;;;;;13.43;11.30;;;5.40;66.40;;;;;;5026267;28;20687;-47
2021/01/16 03:41:53;;;;;;;13.47;11.13;;;5.40;66.60;;;;;;5029463;28;20688;-47
2021/01/16 03:44:20;;;;;;;13.70;10.10;;;5.40;66.50;;;;;;5030785;28;20698;-46
2021/01/16 03:46:47;;;;;;;13.00;10.30;;;5.40;65.40;;;;;;5030542;28;20639;-47
2021/01/16 03:49:13;;;;;;;10.70;9.27;;;5.40;64.60;;;;;;5030159;28;21998;-47
2021/01/16 03:51:41;;;;;;;9.93;8.70;;;5.40;63.50;;;;;;5037775;28;20669;-48
2021/01/16 03:54:08;;;;;;;8.73;7.63;;;5.30;62.50;;;;;;5030572;28;20658;-47
2021/01/16 03:56:35;;;;;;;9.03;8.13;;;5.30;61.90;;;;;;5030848;28;20663;-47
2021/01/16 03:59:02;;;;;;;10.90;7.80;;;5.30;61.40;;;;;;5030542;28;21257;-47
2021/01/16 04:01:29;;;;;;;9.83;7.90;;;5.30;61.10;;;;;;5031030;28;20662;-47
2021/01/16 04:03:55;;;;;;;8.90;6.53;;;5.30;61.60;;;;;;5030388;28;20675;-47
2021/01/16 04:06:22;;;;;;;8.93;8.03;;;5.30;61.10;;;;;;5030637;28;20667;-47
2021/01/16 04:08:50;;;;;;;6.20;5.57;;;5.30;60.30;;;;;;5030315;28;20689;-47
2021/01/16 04:11:16;;;;;;;9.90;8.00;;;5.20;59.70;;;;;;5033808;28;21186;-47
2021/01/16 04:13:43;;;;;;;8.47;7.60;;;5.20;59.70;;;;;;5049385;28;20650;-47
2021/01/16 04:16:10;;;;;;;8.83;8.03;;;5.20;59.70;;;;;;5049987;28;20935;-47
2021/01/16 04:18:36;;;;;;;9.90;8.90;;;5.20;59.70;;;;;;5050164;28;20759;-47
2021/01/16 04:21:03;;;;;;;8.30;7.43;;;5.20;59.60;;;;;;5049998;28;20665;-49
2021/01/16 04:23:30;;;;;;;8.53;7.07;;;5.20;59.70;;;;;;5029976;28;20773;-48
2021/01/16 04:25:58;;;;;;;10.30;8.47;;;5.20;59.60;;;;;;5029376;28;21058;-49
2021/01/16 04:28:24;;;;;;;10.47;7.23;;;5.20;59.80;;;;;;5029954;28;20722;-47
2021/01/16 04:30:51;;;;;;;9.73;8.40;;;5.20;59.80;;;;;;5017410;28;20656;-49
2021/01/16 04:33:18;;;;;;;10.13;7.90;;;5.20;59.80;;;;;;5027274;28;20614;-49
2021/01/16 04:35:45;;;;;;;10.70;9.43;;;5.20;60.60;;;;;;5049860;28;20650;-49
2021/01/16 04:38:12;;;;;;;10.50;7.73;;;5.20;60.00;;;;;;5048986;28;20653;-49
2021/01/16 04:40:39;;;;;;;10.47;7.90;;;5.20;60.10;;;;;;5029152;28;20939;-49
2021/01/16 04:43:07;;;;;;;10.47;8.20;;;5.30;60.40;;;;;;5029212;28;20666;-49
2021/01/16 04:45:33;;;;;;;9.83;8.77;;;5.30;60.60;;;;;;5029193;28;20623;-49
2021/01/16 04:48:01;;;;;;;11.57;8.77;;;5.30;60.80;;;;;;5024418;28;20663;-49
2021/01/16 04:50:29;;;;;;;13.80;9.60;;;5.30;61.00;;;;;;5010751;28;20631;-49
2021/01/16 04:53:00;;;;;;;14.37;10.20;;;5.30;61.70;;;;;;5026950;28;21222;-49
2021/01/16 04:55:27;;;;;;;11.37;10.17;;;5.30;62.60;;;;;;5029661;28;20707;-49
2021/01/16 04:57:54;;;;;;;12.13;9.87;;;5.30;63.10;;;;;;5029339;28;20696;-49
2021/01/16 05:00:22;;;;;;;11.63;8.67;;;5.30;64.00;;;;;;5030114;28;20963;-48
2021/01/16 05:02:49;;;;;;;13.93;10.77;;;5.30;63.40;;;;;;5029661;28;20618;-48
2021/01/16 05:05:16;;;;;;;13.13;10.70;;;5.30;63.60;;;;;;5030079;28;20689;-49
2021/01/16 05:07:42;;;;;;;13.60;10.90;;;5.30;63.40;;;;;;5033388;28;21045;-49
2021/01/16 05:10:10;;;;;;;13.73;10.87;;;5.30;63.20;;;;;;5040232;28;20734;-49
2021/01/16 05:13:03;;;;;;;12.20;10.00;;;5.30;62.80;;;;;;5029652;28;20612;-48
2021/01/16 05:15:31;;;;;;;10.60;8.17;;;5.30;63.40;;;;;;5029094;28;20650;-49
2021/01/16 05:18:00;;;;;;;11.77;9.93;;;5.30;62.70;;;;;;5029183;28;20693;-48
2021/01/16 05:20:27;;;;;;;10.70;9.07;;;5.30;63.10;;;;;;5028845;28;20667;-49
2021/01/16 05:23:11;;;;;;;14.87;10.43;;;5.30;63.40;;;;;;5029355;28;21263;-48
2021/01/16 05:25:42;;;;;;;12.07;9.50;;;5.30;63.00;;;;;;5028468;28;20687;-49
2021/01/16 05:28:09;;;;;;;10.97;9.60;;;5.40;62.30;;;;;;5029568;28;20670;-49
2021/01/16 05:30:46;;;;;;;12.27;9.20;;;5.40;61.80;;;;;;5028807;28;21249;-49
2021/01/16 05:33:15;;;;;;;11.60;8.47;;;5.30;62.00;;;;;;5029480;28;20650;-48
2021/01/16 05:35:41;;;;;;;12.53;10.60;;;5.30;62.00;;;;;;5028261;28;20678;-48
2021/01/16 05:38:08;;;;;;;12.10;9.20;;;5.30;61.80;;;;;;5028941;28;21042;-49
2021/01/16 05:40:35;;;;;;;10.33;8.57;;;5.40;61.70;;;;;;5028815;28;20251;-48
2021/01/16 05:43:02;;;;;;;11.50;10.00;;;5.30;60.40;;;;;;5029001;28;20665;-49
2021/01/16 05:45:29;;;;;;;13.10;9.00;;;5.30;59.90;;;;;;5029080;28;21087;-49
2021/01/16 05:47:56;;;;;;;16.23;8.83;;;5.30;59.70;;;;;;5028558;28;21012;-48
2021/01/16 05:50:23;;;;;;;17.05;9.70;;;5.30;59.30;;;;;;5029154;28;20994;-49
2021/01/16 05:52:50;;;;;;;12.43;9.37;;;5.20;59.40;;;;;;5028790;28;20540;-48
2021/01/16 05:55:17;;;;;;;10.70;8.50;;;5.20;59.60;;;;;;5022240;28;20770;-49
2021/01/16 05:57:46;;;;;;;9.13;7.07;;;5.20;59.90;;;;;;5009039;28;20666;-48
2021/01/16 06:00:21;;;;;;;9.10;7.67;;;5.20;59.80;;;;;;5021075;28;20679;-48
2021/01/16 06:02:48;;;;;;;13.23;9.70;;;5.20;59.70;;;;;;5035074;28;20670;-48
2021/01/16 06:05:16;;;;;;;12.40;9.93;;;5.20;59.60;;;;;;5028837;28;21089;-48
2021/01/16 06:07:42;;;;;;;11.00;9.50;;;5.20;59.50;;;;;;5029359;28;20891;-48
2021/01/16 06:10:13;;;;;;;12.50;9.20;;;5.30;59.20;;;;;;5028660;28;20255;-48
2021/01/16 06:12:39;;;;;;;10.30;8.60;;;5.30;59.10;;;;;;5028866;28;20666;-48
2021/01/16 06:15:13;;;;;;;11.67;9.40;;;5.30;59.10;;;;;;5029252;28;20650;-48
2021/01/16 06:17:40;;;;;;;8.53;7.47;;;5.30;59.40;;;;;;5028689;28;20995;-49
2021/01/16 06:20:08;;;;;;;11.18;10.07;;;5.20;59.60;;;;;;5028061;28;20705;-48
2021/01/16 06:22:35;;;;;;;12.80;10.80;;;5.30;59.70;;;;;;5038218;28;20201;-49
2021/01/16 06:25:03;;;;;;;9.75;8.10;;;5.30;59.20;;;;;;5042936;28;20715;-48
2021/01/16 06:27:29;;;;;;;15.83;10.10;;;5.30;59.10;;;;;;5028452;28;20240;-49
2021/01/16 06:29:57;;;;;;;8.10;7.10;;;5.30;59.10;;;;;;5027165;28;20701;-49
2021/01/16 06:32:24;;;;;;;10.03;8.40;;;5.20;58.90;;;;;;5024360;28;20667;-49
2021/01/16 06:35:00;;;;;;;10.10;7.80;;;5.30;58.90;;;;;;5028355;28;21042;-49
2021/01/16 06:37:27;;;;;;;10.55;8.55;;;5.30;58.40;;;;;;5032015;28;20622;-49
2021/01/16 06:39:54;;;;;;;12.80;8.87;;;5.30;58.40;;;;;;5031483;28;20260;-49
2021/01/16 06:42:21;;;;;;;12.07;8.77;;;5.30;58.30;;;;;;5039555;28;20661;-49
2021/01/16 06:44:48;;;;;;;16.33;9.80;;;5.30;58.10;;;;;;5052250;28;21201;-48
2021/01/16 06:47:15;;;;;;;13.40;9.07;;;5.30;58.20;;;;;;5051679;28;20226;-48
2021/01/16 06:49:42;;;;;;;10.50;8.20;;;5.30;58.40;;;;;;5042530;28;20752;-49
2021/01/16 06:52:08;;;;;;;10.50;8.90;;;5.30;58.30;;;;;;5031672;28;20668;-49
2021/01/16 06:54:36;;;;;;;11.47;9.63;;;5.20;58.30;;;;;;5031741;28;20623;-49
2021/01/16 06:57:07;;;;;;;12.37;10.77;;;5.30;58.50;;;;;;5031912;28;20741;-49
2021/01/16 06:59:35;;;;;;;11.93;8.87;;;5.30;58.30;;;;;;5031105;28;20697;-49
2021/01/16 07:02:14;;;;;;;10.80;8.70;;;5.30;58.40;;;;;;5032156;28;21156;-49
2021/01/16 07:04:40;;;;;;;12.77;8.60;;;5.30;58.20;;;;;;5050951;28;21169;-49
2021/01/16 07:07:07;;;;;;;12.67;8.70;;;5.20;58.10;;;;;;5044791;28;20626;-49
2021/01/16 07:09:34;;;;;;;11.77;8.83;;;5.20;58.30;;;;;;5037224;28;21163;-48
2021/01/16 07:12:01;;;;;;;11.00;8.50;;;5.20;58.30;;;;;;5051010;28;20661;-48
2021/01/16 07:14:28;;;;;;;11.10;8.83;;;5.20;58.10;;;;;;5051657;28;21204;-48
2021/01/16 07:16:55;;;;;;;9.50;8.50;;;5.20;58.50;;;;;;5051086;28;20649;-48
2021/01/16 07:19:22;;;;;;;11.23;8.47;;;5.20;58.70;;;;;;5051957;28;20697;-48
2021/01/16 07:21:49;;;;;;;12.60;9.57;;;5.20;58.90;;;;;;5039274;28;21040;-49
2021/01/16 07:24:17;;;;;;;13.03;8.93;;;5.20;58.90;;;;;;5032329;28;20716;-49
2021/01/16 07:26:46;;;;;;;11.40;8.67;;;5.30;58.80;;;;;;5032092;28;20674;-48
2021/01/16 07:29:12;;;;;;;12.93;10.83;;;5.20;58.10;;;;;;5031477;28;20675;-49
2021/01/16 07:31:42;;;;;;;11.60;9.10;;;5.20;57.80;;;;;;5031287;28;20655;-48
2021/01/16 07:34:09;;;;;;;10.87;8.87;;;5.30;57.90;;;;;;5031301;28;20623;-48
2021/01/16 07:36:36;;;;;;;10.57;8.70;;;5.30;58.00;;;;;;5031292;28;20666;-48
2021/01/16 07:39:04;;;;;;;10.00;8.60;;;5.30;58.00;;;;;;5030601;28;20235;-49
2021/01/16 07:41:31;;;;;;;10.43;8.73;;;5.30;58.10;;;;;;5031300;28;20623;-48
2021/01/16 07:44:08;;;;;;;11.50;8.80;;;5.30;58.10;;;;;;5043809;28;20990;-48
2021/01/16 07:46:35;;;;;;;11.83;9.17;;;5.30;58.20;;;;;;5049387;28;20650;-48
2021/01/16 07:49:03;;;;;;;12.45;9.00;;;5.30;58.40;;;;;;5037378;28;20691;-48
2021/01/16 07:51:34;;;;;;;11.30;9.80;;;5.30;58.30;;;;;;5030956;28;20572;-49
2021/01/16 07:54:02;;;;;;;10.60;8.98;;;5.30;58.10;;;;;;5030683;28;20651;-48
2021/01/16 07:56:40;;;;;;;12.00;9.90;;;5.30;58.00;;;;;;5030353;28;20223;-48
2021/01/16 07:59:17;;;;;;;13.20;9.67;;;5.20;57.90;;;;;;5033991;28;20683;-49
2021/01/16 08:02:09;;;;;;;11.33;8.87;;;5.20;58.40;;;;;;5015900;28;20662;-49
2021/01/16 08:04:41;;;;;;;11.07;8.70;;;5.00;58.40;;;;;;5019597;28;21033;-47
2021/01/16 08:07:08;;;;;;;13.70;9.33;;;5.00;58.90;;;;;;5030470;28;21323;-49
2021/01/16 08:09:53;;;;;;;13.00;9.80;;;4.90;59.10;;;;;;5030576;28;20662;-48
2021/01/16 08:12:21;;;;;;;14.07;9.70;;;5.00;59.20;;;;;;5028418;28;20765;-48
2021/01/16 08:14:47;;;;;;;14.40;9.50;;;5.00;59.20;;;;;;5030316;28;21037;-49
2021/01/16 08:17:16;;;;;;;12.10;8.77;;;5.00;59.40;;;;;;5026152;28;20709;-49
2021/01/16 08:19:54;;;;;;;11.47;9.40;;;5.10;59.30;;;;;;5030152;28;20240;-48
2021/01/16 08:22:21;;;;;;;13.48;9.95;;;5.10;59.00;;;;;;5029972;28;20688;-48
2021/01/16 08:24:56;;;;;;;13.10;9.30;;;5.00;59.10;;;;;;5030212;28;20270;-48
2021/01/16 08:27:24;;;;;;;11.60;8.70;;;5.00;59.10;;;;;;5030242;28;20659;-48
2021/01/16 08:29:51;;;;;;;15.00;10.70;;;4.90;59.00;;;;;;5029876;28;20629;-49
2021/01/16 08:32:18;;;;;;;12.50;10.07;;;4.90;59.20;;;;;;5029869;28;20702;-48
2021/01/16 08:34:52;;;;;;;10.43;8.40;;;4.80;59.30;;;;;;5028123;28;20212;-49
2021/01/16 08:37:33;;;;;;;11.60;9.00;;;4.80;59.90;;;;;;5030029;28;20666;-48
2021/01/16 08:40:01;;;;;;;12.20;9.80;;;4.80;59.90;;;;;;5026271;28;20694;-48
2021/01/16 08:42:28;;;;;;;14.13;10.77;;;4.80;59.50;;;;;;5025457;28;20743;-50
2021/01/16 08:44:56;;;;;;;13.50;10.77;;;4.80;59.20;;;;;;5010015;28;20241;-50
2021/01/16 08:47:22;;;;;;;11.73;8.30;;;4.80;59.10;;;;;;5024561;28;21020;-50
2021/01/16 08:49:50;;;;;;;12.57;10.13;;;4.80;59.00;;;;;;5029719;28;20280;-50
2021/01/16 08:52:30;;;;;;;12.32;9.45;;;4.80;58.90;;;;;;5025845;28;20904;-50
2021/01/16 08:55:01;;;;;;;11.33;9.00;;;4.80;59.10;;;;;;5018508;28;20228;-50
2021/01/16 08:57:32;;;;;;;11.45;8.85;;;4.80;59.50;;;;;;5030254;28;20653;-50
2021/01/16 09:00:18;;;;;;;12.05;9.70;;;4.80;59.40;;;;;;5028817;28;20240;-50
2021/01/16 09:03:04;;;;;;;11.00;8.90;;;4.80;59.40;;;;;;5029822;28;20231;-50
2021/01/16 09:05:33;;;;;;;13.80;9.93;;;4.90;59.40;;;;;;5022009;28;21057;-50
2021/01/16 09:07:59;;;;;;;12.57;10.40;;;4.90;59.40;;;;;;5009971;28;20759;-50
2021/01/16 09:10:27;;;;;;;14.73;9.83;;;5.00;59.20;;;;;;5015707;28;20662;-51
2021/01/16 09:12:54;;;;;;;14.75;10.60;;;5.00;58.90;;;;;;5029509;28;20694;-49
2021/01/16 09:15:22;;;;;;;9.27;8.17;;;5.00;58.80;;;;;;5018752;28;20534;-50
2021/01/16 09:18:08;;;;;;;13.98;9.88;;;5.00;59.00;;;;;;5011522;28;20662;-48
2021/01/16 09:20:37;;;;;;;13.80;10.57;;;5.10;59.30;;;;;;5027206;28;20492;-49
2021/01/16 09:23:22;;;;;;;12.50;9.70;;;5.10;59.40;;;;;;5027262;28;20627;-49
2021/01/16 09:25:49;;;;;;;12.43;10.00;;;5.10;59.60;;;;;;5021217;28;21217;-49
2021/01/16 09:28:17;;;;;;;15.97;11.00;;;5.20;59.40;;;;;;5024216;28;21234;-49
2021/01/16 09:30:44;;;;;;;14.20;11.37;;;5.20;59.40;;;;;;5017565;28;20658;-48
2021/01/16 09:33:19;;;;;;;11.70;9.83;;;5.20;59.20;;;;;;5021356;28;20698;-49
2021/01/16 09:35:47;;;;;;;16.83;11.80;;;5.30;58.80;;;;;;5025626;28;20665;-49
2021/01/16 09:38:15;;;;;;;13.03;10.87;;;5.30;58.80;;;;;;5027749;28;21038;-49
2021/01/16 09:40:42;;;;;;;12.60;10.23;;;5.30;58.50;;;;;;5030089;28;20644;-49
2021/01/16 09:43:15;;;;;;;10.93;8.23;;;5.30;58.40;;;;;;5031293;28;20657;-49
2021/01/16 09:45:52;;;;;;;12.60;9.67;;;5.30;58.70;;;;;;5049447;28;20684;-49
2021/01/16 09:48:46;;;;;;;13.13;10.30;;;5.30;58.90;;;;;;5048617;28;20661;-49
2021/01/16 09:51:14;;;;;;;10.13;8.63;;;5.40;59.00;;;;;;4994100;28;20796;-49
2021/01/16 09:53:41;;;;;;;13.90;10.50;;;5.30;58.90;;;;;;5029043;28;21000;-49
2021/01/16 09:56:08;;;;;;;14.00;9.83;;;5.40;58.70;;;;;;5028994;28;20625;-49
2021/01/16 09:58:36;;;;;;;12.77;9.10;;;5.40;58.30;;;;;;5029530;28;20694;-49
2021/01/16 10:01:19;;;;;;;13.83;11.30;;;5.40;57.90;;;;;;5030226;28;20642;-48
2021/01/16 10:03:46;;;;;;;12.87;10.93;;;5.40;57.80;;;;;;5030052;28;20626;-47
2021/01/16 10:06:17;;;;;;;12.47;9.00;;;5.50;57.80;;;;;;5029589;28;20801;-48
2021/01/16 10:08:44;;;;;;;14.00;10.37;;;5.50;57.60;;;;;;5030221;28;20661;-49
2021/01/16 10:11:10;;;;;;;13.43;9.50;;;5.50;57.50;;;;;;5028012;28;20675;-49
2021/01/16 10:13:38;;;;;;;11.60;9.80;;;5.50;57.30;;;;;;5026386;28;20658;-48
2021/01/16 10:16:05;;;;;;;12.20;10.53;;;5.50;57.00;;;;;;5029554;28;21155;-48
2021/01/16 10:18:41;;;;;;;13.83;10.50;;;5.40;57.30;;;;;;5033621;28;20653;-48
2021/01/16 10:21:08;;;;;;;14.63;11.13;;;5.30;57.60;;;;;;5026446;28;20625;-48
2021/01/16 10:23:37;;;;;;;13.63;10.60;;;5.30;58.20;;;;;;5032917;28;20660;-49
2021/01/16 10:26:08;;;;;;;16.47;11.47;;;5.30;58.50;;;;;;5033036;28;20659;-49
2021/01/16 10:28:35;;;;;;;12.87;11.50;;;5.30;59.10;;;;;;5031767;28;20705;-48
2021/01/16 10:31:03;;;;;;;12.60;10.33;;;5.40;59.80;;;;;;5027965;28;20656;-48
2021/01/16 10:33:38;;;;;;;14.13;10.90;;;5.40;59.50;;;;;;5012757;28;20735;-49
2021/01/16 10:36:07;;;;;;;13.17;10.33;;;5.40;59.20;;;;;;5023996;28;20658;-48
2021/01/16 10:38:48;;;;;;;11.20;9.37;;;5.40;59.00;;;;;;5014278;28;20701;-48
2021/01/16 10:41:16;;;;;;;11.43;9.03;;;5.40;59.00;;;;;;5031658;28;21060;-48
2021/01/16 10:43:43;;;;;;;14.33;11.10;;;5.30;58.90;;;;;;5032222;28;20650;-48
2021/01/16 10:46:22;;;;;;;12.87;10.00;;;5.30;58.80;;;;;;5031700;28;21268;-49
2021/01/16 10:48:49;;;;;;;11.37;10.17;;;5.40;58.70;;;;;;5033905;28;20686;-49
2021/01/16 10:51:15;;;;;;;14.07;11.27;;;5.40;58.50;;;;;;5014300;28;20700;-48
2021/01/16 10:53:42;;;;;;;13.10;10.10;;;5.40;58.60;;;;;;5045882;28;20652;-48
2021/01/16 10:56:14;;;;;;;14.83;11.40;;;5.40;58.70;;;;;;5051826;28;20630;-48
2021/01/16 10:58:41;;;;;;;11.30;10.10;;;5.40;59.20;;;;;;5024103;28;20714;-48
2021/01/16 11:01:09;;;;;;;13.40;9.30;;;5.40;59.10;;;;;;5031107;28;20638;-48
2021/01/16 11:03:35;;;;;;;14.47;10.63;;;5.50;59.10;;;;;;5031907;28;20634;-48
2021/01/16 11:06:05;;;;;;;13.47;10.53;;;5.50;58.90;;;;;;5031233;28;20691;-48
2021/01/16 11:08:32;;;;;;;13.60;11.03;;;5.50;59.20;;;;;;5031726;28;20754;-48
2021/01/16 11:10:59;;;;;;;11.57;9.45;;;5.60;58.70;;;;;;5030887;28;20785;-48
2021/01/16 11:13:28;;;;;;;11.03;9.43;;;5.60;58.40;;;;;;5031017;28;20224;-48
2021/01/16 11:15:56;;;;;;;12.90;9.73;;;5.60;58.00;;;;;;5025800;28;21211;-48
2021/01/16 11:18:32;;;;;;;12.23;8.80;;;5.60;57.80;;;;;;5030937;28;20658;-48
2021/01/16 11:21:04;;;;;;;10.80;9.10;;;5.50;57.50;;;;;;5030960;28;20650;-48
2021/01/16 11:23:35;;;;;;;11.97;9.37;;;5.50;57.40;;;;;;5031229;28;20670;-48
2021/01/16 11:26:06;;;;;;;16.63;10.73;;;5.50;57.60;;;;;;5031266;28;20686;-49
2021/01/16 11:28:48;;;;;;;12.50;10.03;;;5.50;57.90;;;;;;5029998;28;20680;-48
2021/01/16 11:31:27;;;;;;;13.80;8.70;;;5.50;57.60;;;;;;5031422;28;20670;-49
2021/01/16 11:34:19;;;;;;;12.23;10.23;;;5.60;57.30;;;;;;5030931;28;20667;-48
2021/01/16 11:36:53;;;;;;;10.77;9.50;;;5.60;57.20;;;;;;5034104;28;21182;-48
2021/01/16 11:39:41;;;;;;;10.03;8.50;;;5.60;56.80;;;;;;5013741;28;20820;-48
2021/01/16 11:42:08;;;;;;;11.77;8.30;;;5.60;56.90;;;;;;5031254;28;20623;-49
2021/01/16 11:44:52;;;;;;;11.30;8.30;;;5.50;55.80;;;;;;5028649;28;20635;-48
2021/01/16 11:47:19;;;;;;;7.77;6.90;;;5.50;57.00;;;;;;5024851;28;20714;-48
2021/01/16 11:49:45;;;;;;;8.50;7.20;;;5.30;54.00;;;;;;5030836;28;21017;-50
2021/01/16 11:52:12;;;;;;;9.80;7.60;;;5.10;54.20;;;;;;5030346;28;20662;-48
2021/01/16 11:54:39;;;;;;;8.70;7.27;;;4.90;54.20;;;;;;5029667;28;21206;-47
2021/01/16 11:57:08;;;;;;;9.63;6.50;;;4.90;55.10;;;;;;5031082;28;20622;-48
2021/01/16 11:59:35;;;;;;;9.10;8.10;;;4.70;53.10;;;;;;5030420;28;20686;-49
2021/01/16 12:02:03;;;;;;;9.50;7.95;;;4.70;53.50;;;;;;5030757;28;20634;-48
2021/01/16 12:04:30;;;;;;;9.60;7.10;;;4.80;54.20;;;;;;5030948;28;20247;-47
2021/01/16 12:06:59;;;;;;;10.50;7.23;;;4.90;53.40;;;;;;5012332;28;21506;-48
2021/01/16 12:09:27;;;;;;;8.63;7.60;;;4.90;52.70;;;;;;5029331;28;20666;-48
2021/01/16 12:11:53;;;;;;;6.50;5.53;;;4.80;52.30;;;;;;5031260;28;20662;-48
2021/01/16 12:14:20;;;;;;;7.23;6.10;;;4.80;52.70;;;;;;5030221;28;20662;-48
2021/01/16 12:16:47;;;;;;;8.13;7.30;;;4.80;52.80;;;;;;5030435;28;20757;-49
2021/01/16 12:19:15;;;;;;;8.90;7.50;;;4.80;52.60;;;;;;5030500;28;20282;-49
2021/01/16 12:21:44;;;;;;;8.23;7.37;;;4.80;53.60;;;;;;5030225;28;20677;-48
2021/01/16 12:24:11;;;;;;;8.05;6.53;;;4.80;52.30;;;;;;5030078;28;21468;-48
2021/01/16 12:26:38;;;;;;;7.40;6.03;;;4.80;51.70;;;;;;5029986;28;20256;-48
2021/01/16 12:29:05;;;;;;;8.33;7.13;;;4.80;51.30;;;;;;5026300;28;20706;-49
2021/01/16 12:31:32;;;;;;;7.17;5.73;;;4.60;51.20;;;;;;5030903;28;20626;-49
2021/01/16 12:34:03;;;;;;;16.07;6.80;;;4.60;51.60;;;;;;5029524;28;20781;-48
2021/01/16 12:36:30;;;;;;;12.50;7.00;;;4.70;52.60;;;;;;5025367;28;20751;-49
2021/01/16 12:38:59;;;;;;;7.23;6.30;;;4.60;52.10;;;;;;5030241;28;20690;-47
2021/01/16 12:41:26;;;;;;;5.95;5.35;;;4.60;52.10;;;;;;5030104;28;21266;-49
2021/01/16 12:43:53;;;;;;;8.33;6.00;;;4.50;52.40;;;;;;5029674;28;20637;-48
2021/01/16 12:46:21;;;;;;;6.78;4.13;;;4.30;52.10;;;;;;5026832;28;20698;-49
2021/01/16 12:48:47;;;;;;;9.50;6.93;;;4.10;52.20;;;;;;5029491;28;20626;-48
2021/01/16 12:51:15;;;;;;;7.70;6.50;;;4.00;52.50;;;;;;5029491;28;20707;-48
2021/01/16 12:53:43;;;;;;;6.18;5.57;;;4.00;52.90;;;;;;5029476;28;20716;-49